Time;durP1;ratioP1;P1;durP2;ratioP2;P2;SDS_P1;SDS_P2;PMS_P1;PMS_P2;Temp;Humidity;BMP_temperature;BMP_pressure;BME280_temperature;BME280_humidity;BME280_pressure;Samples;Min_cycle;Max_cycle;Signal;HPM_P1;HPM_P2
2022/07/02 00:00:28;;;;;;;;;;;;;;;28.22;41.31;94789.88;5022005;28;7522;-63
2022/07/02 00:02:54;;;;;;;;;;;;;;;28.21;41.55;94780.06;5016719;28;7244;-63
2022/07/02 00:05:22;;;;;;;;;;;;;;;28.21;41.50;94788.34;5025693;28;6983;-63
2022/07/02 00:07:50;;;;;;;;;;;;;;;28.22;41.18;94787.84;5021507;28;7074;-63
2022/07/02 00:10:21;;;;;;;;;;;;;;;28.22;41.10;94789.88;5018794;28;8764;-63
2022/07/02 00:12:49;;;;;;;;;;;;;;;28.17;41.31;94779.59;5032267;28;7224;-63
2022/07/02 00:15:16;;;;;;;;;;;;;;;28.19;41.52;94790.88;5026654;28;9050;-63
2022/07/02 00:17:43;;;;;;;;;;;;;;;28.18;41.21;94787.41;5009909;28;8786;-63
2022/07/02 00:20:10;;;;;;;;;;;;;;;28.17;41.24;94788.66;5015180;28;7619;-63
2022/07/02 00:22:36;;;;;;;;;;;;;;;28.15;41.83;94788.41;5023200;28;9450;-63
2022/07/02 00:25:04;;;;;;;;;;;;;;;28.16;41.28;94783.66;5028041;28;9059;-63
2022/07/02 00:27:31;;;;;;;;;;;;;;;28.16;41.60;94787.16;5013976;28;7264;-63
2022/07/02 00:30:02;;;;;;;;;;;;;;;28.12;41.57;94778.38;5029011;28;7258;-63
2022/07/02 00:32:34;;;;;;;;;;;;;;;28.12;41.86;94781.16;5008709;28;7304;-63
2022/07/02 00:35:08;;;;;;;;;;;;;;;28.13;41.24;94777.13;5008930;28;6971;-63
2022/07/02 00:37:36;;;;;;;;;;;;;;;28.12;41.30;94769.34;5015995;28;9066;-63
2022/07/02 00:40:04;;;;;;;;;;;;;;;28.10;41.39;94771.91;5022712;28;7166;-63
2022/07/02 00:42:34;;;;;;;;;;;;;;;28.09;41.36;94767.63;5007699;28;6986;-63
2022/07/02 00:45:02;;;;;;;;;;;;;;;28.12;41.35;94769.34;5031641;28;7166;-63
2022/07/02 00:47:32;;;;;;;;;;;;;;;28.12;41.25;94766.59;5019590;28;7211;-63
2022/07/02 00:50:03;;;;;;;;;;;;;;;28.10;41.41;94766.38;5010155;28;7239;-64
2022/07/02 00:52:29;;;;;;;;;;;;;;;28.10;41.97;94769.84;5014322;28;8660;-64
2022/07/02 00:54:55;;;;;;;;;;;;;;;28.10;41.27;94760.84;5011393;28;9098;-63
2022/07/02 00:57:21;;;;;;;;;;;;;;;28.12;41.05;94761.06;5014912;28;7069;-64
2022/07/02 00:59:47;;;;;;;;;;;;;;;28.12;41.14;94761.78;5017111;28;6852;-63
2022/07/02 01:02:23;;;;;;;;;;;;;;;28.12;41.12;94761.06;5008641;28;6868;-63
2022/07/02 01:04:50;;;;;;;;;;;;;;;28.10;41.19;94760.84;5013757;28;7562;-63
2022/07/02 01:07:16;;;;;;;;;;;;;;;28.09;41.34;94762.09;5009532;28;7244;-63
2022/07/02 01:12:36;;;;;;;;;;;;;;;28.06;41.22;94760.34;5014236;28;9323;-63
2022/07/02 01:15:04;;;;;;;;;;;;;;;28.04;41.24;94768.41;5013854;28;7236;-63
2022/07/02 01:17:37;;;;;;;;;;;;;;;28.05;41.47;94764.41;5013470;28;7000;-63
2022/07/02 01:20:04;;;;;;;;;;;;;;;28.03;41.75;94755.88;5013117;28;6984;-63
2022/07/02 01:22:52;;;;;;;;;;;;;;;28.03;41.58;94762.16;5037083;28;7542;-63
2022/07/02 01:25:38;;;;;;;;;;;;;;;28.04;41.16;94752.59;5023562;28;9372;-62
2022/07/02 01:28:13;;;;;;;;;;;;;;;28.04;41.26;94749.81;5019509;28;7273;-62
2022/07/02 01:30:40;;;;;;;;;;;;;;;28.05;41.78;94742.28;5025364;28;6908;-62
2022/07/02 01:33:16;;;;;;;;;;;;;;;28.02;41.28;94748.84;5015485;28;7198;-62
2022/07/02 01:35:42;;;;;;;;;;;;;;;28.02;41.32;94751.59;5012689;28;7265;-62
2022/07/02 01:38:16;;;;;;;;;;;;;;;28.02;41.25;94757.88;5010315;28;6984;-62
2022/07/02 01:40:47;;;;;;;;;;;;;;;28.03;41.19;94758.63;5029365;28;7484;-62
2022/07/02 01:43:21;;;;;;;;;;;;;;;28.03;40.77;94758.63;5029691;28;7199;-62
2022/07/02 01:45:56;;;;;;;;;;;;;;;28.02;40.91;94752.34;5030761;28;7126;-62
2022/07/02 01:48:36;;;;;;;;;;;;;;;28.03;41.23;94753.09;5021193;28;7001;-62
2022/07/02 01:51:09;;;;;;;;;;;;;;;28.01;41.37;94755.66;5017618;28;7246;-62
2022/07/02 01:53:42;;;;;;;;;;;;;;;27.99;41.18;94753.38;5012853;28;7237;-62
2022/07/02 01:56:12;;;;;;;;;;;;;;;28.00;41.55;94751.38;5028859;28;9228;-62
2022/07/02 01:58:38;;;;;;;;;;;;;;;28.01;41.20;94752.88;5020714;28;9489;-62
2022/07/02 02:01:09;;;;;;;;;;;;;;;28.00;41.54;94757.66;5021502;28;7045;-62
2022/07/02 02:03:37;;;;;;;;;;;;;;;28.01;41.09;94763.94;5019171;28;7077;-62
2022/07/02 02:06:04;;;;;;;;;;;;;;;28.01;40.96;94769.47;5026955;28;7198;-62
2022/07/02 02:08:30;;;;;;;;;;;;;;;28.00;41.19;94765.94;5027082;28;8853;-62
2022/07/02 02:10:56;;;;;;;;;;;;;;;27.99;41.02;94774.78;5020019;28;7212;-62
2022/07/02 02:13:39;;;;;;;;;;;;;;;27.99;41.12;94764.44;5036969;28;7222;-62
2022/07/02 02:16:07;;;;;;;;;;;;;;;27.98;41.08;94760.19;5038178;28;7265;-62
2022/07/02 02:18:34;;;;;;;;;;;;;;;27.97;41.17;94769.75;5025385;28;8049;-62
2022/07/02 02:21:00;;;;;;;;;;;;;;;27.98;41.26;94760.19;5019633;28;7250;-62
2022/07/02 02:23:32;;;;;;;;;;;;;;;27.97;40.92;94761.44;5028382;28;7239;-62
2022/07/02 02:26:07;;;;;;;;;;;;;;;27.97;41.24;94768.97;5028127;28;7051;-62
2022/07/02 02:28:44;;;;;;;;;;;;;;;27.96;41.08;94762.69;5025698;28;9139;-62
2022/07/02 02:31:11;;;;;;;;;;;;;;;27.97;41.04;94757.91;5016135;28;6951;-62
2022/07/02 02:33:50;;;;;;;;;;;;;;;27.97;40.98;94752.41;5021988;28;7198;-62
2022/07/02 02:36:27;;;;;;;;;;;;;;;27.97;41.20;94752.41;5018745;28;8251;-62
2022/07/02 02:39:05;;;;;;;;;;;;;;;27.95;41.49;94750.13;5014076;28;6949;-62
2022/07/02 02:41:43;;;;;;;;;;;;;;;27.92;41.20;94753.94;5011337;28;7367;-62
2022/07/02 02:44:22;;;;;;;;;;;;;;;27.95;41.24;94754.94;5015105;28;7006;-62
2022/07/02 02:46:56;;;;;;;;;;;;;;;27.92;41.21;94753.19;4999376;28;7163;-62
2022/07/02 02:49:22;;;;;;;;;;;;;;;27.93;41.22;94751.91;5022611;28;7116;-64
2022/07/02 02:52:04;;;;;;;;;;;;;;;27.92;41.12;94755.94;5030506;28;7977;-64
2022/07/02 02:54:39;;;;;;;;;;;;;;;27.90;41.09;94747.44;5022320;28;7878;-64
2022/07/02 02:57:07;;;;;;;;;;;;;;;27.90;41.08;94741.91;5011308;28;7300;-64
2022/07/02 02:59:46;;;;;;;;;;;;;;;27.90;41.28;94744.66;5011794;28;9145;-64
2022/07/02 03:02:19;;;;;;;;;;;;;;;27.89;41.26;94752.19;5021366;28;7025;-64
2022/07/02 03:04:50;;;;;;;;;;;;;;;27.89;41.37;94745.91;5018477;28;7006;-64
2022/07/02 03:07:16;;;;;;;;;;;;;;;27.88;41.19;94749.97;5015482;28;7277;-64
2022/07/02 03:09:47;;;;;;;;;;;;;;;27.89;41.13;94751.44;5006432;28;7200;-64
2022/07/02 03:12:23;;;;;;;;;;;;;;;27.86;41.48;94756.00;5012701;28;9111;-64
2022/07/02 03:14:53;;;;;;;;;;;;;;;27.85;41.69;94762.03;5030351;28;7761;-64
2022/07/02 03:17:22;;;;;;;;;;;;;;;27.84;40.89;94755.03;5013072;28;6967;-61
2022/07/02 03:19:54;;;;;;;;;;;;;;;27.85;41.13;94753.75;5013106;28;7218;-61
2022/07/02 03:22:31;;;;;;;;;;;;;;;27.84;41.11;94750.22;5029050;28;7344;-61
2022/07/02 03:25:11;;;;;;;;;;;;;;;27.84;41.04;94760.56;5030356;28;7316;-61
2022/07/02 03:27:41;;;;;;;;;;;;;;;27.84;41.03;94758.53;5011435;28;7100;-61
2022/07/02 03:30:08;;;;;;;;;;;;;;;27.84;41.06;94755.03;5028901;28;6997;-61
2022/07/02 03:32:36;;;;;;;;;;;;;;;27.85;41.47;94753.75;5006119;28;6969;-61
2022/07/02 03:35:02;;;;;;;;;;;;;;;27.85;41.08;94757.28;5041280;28;7202;-61
2022/07/02 03:37:30;;;;;;;;;;;;;;;27.85;41.28;94762.81;5020801;28;7227;-61
2022/07/02 03:39:56;;;;;;;;;;;;;;;27.84;41.15;94758.53;5016877;28;6997;-61
2022/07/02 03:42:23;;;;;;;;;;;;;;;27.82;41.10;94769.34;5021385;28;9086;-61
2022/07/02 03:44:50;;;;;;;;;;;;;;;27.80;41.38;94765.59;5019804;28;7087;-62
2022/07/02 03:47:22;;;;;;;;;;;;;;;27.79;41.08;94761.34;5023848;28;7230;-61
2022/07/02 03:49:50;;;;;;;;;;;;;;;27.76;41.48;94763.13;5030589;28;7267;-61
2022/07/02 03:52:33;;;;;;;;;;;;;;;27.77;41.28;94761.13;5020028;28;7298;-61
2022/07/02 03:55:00;;;;;;;;;;;;;;;27.77;40.93;94769.41;5014900;28;9449;-61
2022/07/02 03:57:28;;;;;;;;;;;;;;;27.78;41.29;94765.38;5026634;28;9538;-61
2022/07/02 03:59:53;;;;;;;;;;;;;;;27.77;41.25;94770.16;5018586;28;7015;-61
2022/07/02 04:02:22;;;;;;;;;;;;;;;27.76;41.22;94765.91;5018990;28;7146;-61
2022/07/02 04:04:49;;;;;;;;;;;;;;;27.77;41.31;94761.88;4995706;28;9738;-61
2022/07/02 04:07:15;;;;;;;;;;;;;;;27.77;41.20;94767.41;5011152;28;7399;-61
2022/07/02 04:09:40;;;;;;;;;;;;;;;27.79;41.47;94772.41;5019967;28;8718;-61
2022/07/02 04:12:07;;;;;;;;;;;;;;;27.77;41.44;94770.16;5011672;28;7206;-62
2022/07/02 04:14:35;;;;;;;;;;;;;;;27.79;41.29;94777.94;5019123;28;7236;-62
2022/07/02 04:17:06;;;;;;;;;;;;;;;27.79;41.14;94777.94;5016297;28;7329;-62
2022/07/02 04:19:34;;;;;;;;;;;;;;;27.77;41.13;94770.16;5023350;28;7673;-61
2022/07/02 04:22:04;;;;;;;;;;;;;;;27.77;40.97;94772.94;5030162;28;7799;-62
2022/07/02 04:24:48;;;;;;;;;;;;;;;27.77;41.31;94781.22;5014368;28;7857;-61
2022/07/02 04:27:23;;;;;;;;;;;;;;;27.76;41.24;94770.66;5027195;28;7559;-62
2022/07/02 04:29:49;;;;;;;;;;;;;;;27.76;41.13;94776.19;5018078;28;9124;-61
2022/07/02 04:32:17;;;;;;;;;;;;;;;27.77;40.77;94772.19;5029091;28;7521;-62
2022/07/02 04:34:46;;;;;;;;;;;;;;;27.76;41.01;94779.72;5020649;28;9083;-61
2022/07/02 04:37:12;;;;;;;;;;;;;;;27.77;40.94;94774.94;5012797;28;7264;-61
2022/07/02 04:39:38;;;;;;;;;;;;;;;27.76;41.17;94778.97;5022892;28;7001;-61
2022/07/02 04:42:04;;;;;;;;;;;;;;;27.75;41.04;94775.47;5013342;28;9446;-61
2022/07/02 04:44:30;;;;;;;;;;;;;;;27.77;40.80;94777.72;5019598;28;7294;-62
2022/07/02 04:46:56;;;;;;;;;;;;;;;27.76;40.93;94776.94;4999135;28;8882;-61
2022/07/02 04:49:23;;;;;;;;;;;;;;;27.76;40.91;94770.66;5022574;28;7318;-61
2022/07/02 04:51:50;;;;;;;;;;;;;;;27.74;40.88;94781.50;5011289;28;8085;-61
2022/07/02 04:54:19;;;;;;;;;;;;;;;27.73;40.97;94782.78;5023019;28;7224;-62
2022/07/02 04:56:54;;;;;;;;;;;;;;;27.73;41.42;94782.78;5026195;28;8632;-61
2022/07/02 04:59:44;;;;;;;;;;;;;;;27.72;40.92;94782.00;5023389;28;9413;-62
2022/07/02 05:02:18;;;;;;;;;;;;;;;27.72;40.94;94792.31;5018654;28;9083;-61
2022/07/02 05:04:44;;;;;;;;;;;;;;;27.72;40.81;94784.03;5025976;28;9480;-61
2022/07/02 05:07:10;;;;;;;;;;;;;;;27.71;41.06;94791.56;5028730;28;6979;-61
2022/07/02 05:09:36;;;;;;;;;;;;;;;27.72;40.80;94784.03;5019375;28;7216;-61
2022/07/02 05:12:08;;;;;;;;;;;;;;;27.71;41.04;94780.50;5017663;28;9533;-61
2022/07/02 05:14:38;;;;;;;;;;;;;;;27.71;40.93;94790.84;5014295;28;7872;-61
2022/07/02 05:17:04;;;;;;;;;;;;;;;27.71;41.11;94788.06;5020039;28;9335;-61
2022/07/02 05:19:31;;;;;;;;;;;;;;;27.67;40.70;94779.28;5016087;28;7103;-61
2022/07/02 05:21:57;;;;;;;;;;;;;;;27.64;40.97;94792.88;5008200;28;7259;-61
2022/07/02 05:24:23;;;;;;;;;;;;;;;27.66;41.04;94788.84;5009043;28;8726;-61
2022/07/02 05:26:49;;;;;;;;;;;;;;;27.66;41.33;94778.56;5018132;28;6984;-61
2022/07/02 05:29:15;;;;;;;;;;;;;;;27.67;41.22;94776.53;5028926;28;9231;-61
2022/07/02 05:31:53;;;;;;;;;;;;;;;27.67;41.51;94776.53;5027786;28;7187;-61
2022/07/02 05:34:22;;;;;;;;;;;;;;;27.66;41.55;94773.03;5013433;28;7339;-61
2022/07/02 05:36:50;;;;;;;;;;;;;;;27.64;41.62;94770.75;5011463;28;7276;-61
2022/07/02 05:39:21;;;;;;;;;;;;;;;27.59;41.15;94763.28;5018323;28;9387;-61
2022/07/02 05:41:47;;;;;;;;;;;;;;;27.54;41.63;94769.59;5013213;28;9554;-61
2022/07/02 05:44:13;;;;;;;;;;;;;;;27.52;41.44;94774.88;5028762;28;7618;-61
2022/07/02 05:46:42;;;;;;;;;;;;;;;27.52;41.76;94772.13;5010845;28;7216;-61
2022/07/02 05:49:08;;;;;;;;;;;;;;;27.55;41.60;94768.34;5017335;28;7426;-61
2022/07/02 05:51:36;;;;;;;;;;;;;;;27.58;41.46;94761.78;5008191;28;9237;-61
2022/07/02 05:54:12;;;;;;;;;;;;;;;27.61;41.59;94766.28;5017801;28;7212;-61
2022/07/02 05:57:09;;;;;;;;;;;;;;;27.62;41.00;94765.00;5018553;28;7242;-63
2022/07/02 05:59:36;;;;;;;;;;;;;;;27.62;41.30;94759.47;4983766;28;7213;-63
2022/07/02 06:02:13;;;;;;;;;;;;;;;27.61;41.32;94760.00;5002450;28;9753;-62
2022/07/02 06:04:38;;;;;;;;;;;;;;;27.59;41.31;94757.00;4997547;28;9413;-63
2022/07/02 06:09:49;;;;;;;;;;;;;;;27.59;41.27;94768.81;4997669;28;7112;-62
2022/07/02 06:13:03;;;;;;;;;;;;;;;27.59;41.11;94762.53;4976122;28;8723;-63
2022/07/02 06:15:29;;;;;;;;;;;;;;;27.57;40.95;94760.28;4908925;29;7196;-63
2022/07/02 06:17:59;;;;;;;;;;;;;;;27.58;40.86;94759.00;4929317;28;7254;-62
2022/07/02 06:20:26;;;;;;;;;;;;;;;27.55;41.17;94754.53;4910435;29;6930;-62
2022/07/02 06:23:03;;;;;;;;;;;;;;;27.55;41.05;94757.28;4912581;29;7159;-62
2022/07/02 06:25:31;;;;;;;;;;;;;;;27.56;41.08;94749.72;4906706;29;7294;-62
2022/07/02 06:27:57;;;;;;;;;;;;;;;27.57;41.14;94752.00;4926030;28;7297;-62
2022/07/02 06:30:23;;;;;;;;;;;;;;;27.55;40.95;94740.72;4925233;29;7069;-62
2022/07/02 06:32:55;;;;;;;;;;;;;;;27.56;40.90;94741.44;4923208;29;7159;-63
2022/07/02 06:35:32;;;;;;;;;;;;;;;27.56;41.31;94735.91;4934370;28;7308;-62
2022/07/02 06:37:59;;;;;;;;;;;;;;;27.55;41.18;94740.72;4942351;28;7408;-63
2022/07/02 06:40:40;;;;;;;;;;;;;;;27.56;41.77;94752.50;4941923;28;7193;-63
2022/07/02 06:43:15;;;;;;;;;;;;;;;27.54;41.29;94744.72;4929241;28;7662;-62
2022/07/02 06:45:42;;;;;;;;;;;;;;;27.54;41.13;94752.25;4938593;28;7097;-63
2022/07/02 06:48:09;;;;;;;;;;;;;;;27.54;41.00;94750.25;4932091;28;7234;-62
2022/07/02 06:50:49;;;;;;;;;;;;;;;27.56;41.17;94741.44;4944168;28;6991;-62
2022/07/02 06:53:17;;;;;;;;;;;;;;;27.55;41.53;94742.72;5015709;28;7339;-62
2022/07/02 06:55:49;;;;;;;;;;;;;;;27.54;41.40;94750.25;5011564;28;8769;-63
2022/07/02 06:58:17;;;;;;;;;;;;;;;27.55;41.20;94751.00;5031494;28;7115;-63
2022/07/02 07:00:43;;;;;;;;;;;;;;;27.55;41.43;94754.53;5018496;28;7392;-63
2022/07/02 07:03:09;;;;;;;;;;;;;;;27.55;41.14;94751.00;5023968;28;9055;-63
2022/07/02 07:05:36;;;;;;;;;;;;;;;27.53;41.40;94742.50;5019729;28;8155;-63
2022/07/02 07:08:03;;;;;;;;;;;;;;;27.54;41.44;94747.50;5020583;28;10101;-63
2022/07/02 07:10:29;;;;;;;;;;;;;;;27.54;41.49;94747.50;5026063;28;7255;-63
2022/07/02 07:12:56;;;;;;;;;;;;;;;27.55;41.65;94751.78;5016936;28;7629;-63
2022/07/02 07:15:23;;;;;;;;;;;;;;;27.54;41.39;94755.78;5021346;28;8937;-63
2022/07/02 07:18:05;;;;;;;;;;;;;;;27.55;41.31;94739.97;5026861;28;9113;-62
2022/07/02 07:20:34;;;;;;;;;;;;;;;27.55;41.21;94743.47;5026858;28;8694;-63
2022/07/02 07:23:09;;;;;;;;;;;;;;;27.54;41.54;94733.69;5039191;28;7238;-63
2022/07/02 07:25:38;;;;;;;;;;;;;;;27.56;41.23;94730.38;5022285;28;7138;-63
2022/07/02 07:28:04;;;;;;;;;;;;;;;27.59;41.21;94734.91;5024600;28;7000;-63
2022/07/02 07:30:40;;;;;;;;;;;;;;;27.57;41.73;94729.13;5017599;28;7411;-64
2022/07/02 07:33:07;;;;;;;;;;;;;;;27.54;40.59;94727.41;5015148;28;7297;-63
2022/07/02 07:35:39;;;;;;;;;;;;;;;27.55;41.39;94718.59;5012030;28;7856;-63
2022/07/02 07:38:07;;;;;;;;;;;;;;;27.56;40.54;94722.84;5017804;28;9579;-63
2022/07/02 07:40:37;;;;;;;;;;;;;;;27.56;40.92;94709.03;5026764;28;9092;-63
2022/07/02 07:43:06;;;;;;;;;;;;;;;27.55;40.75;94715.84;5013818;28;9034;-64
2022/07/02 07:45:35;;;;;;;;;;;;;;;27.54;40.41;94713.59;5011103;28;7333;-64
2022/07/02 07:48:01;;;;;;;;;;;;;;;27.53;40.06;94717.63;5012222;28;7004;-63
2022/07/02 07:50:27;;;;;;;;;;;;;;;27.54;39.67;94717.09;5010197;28;9157;-63
2022/07/02 07:52:53;;;;;;;;;;;;;;;27.53;40.53;94710.06;5008813;28;9537;-63
2022/07/02 07:55:20;;;;;;;;;;;;;;;27.57;40.01;94712.56;5018612;28;8885;-63
2022/07/02 07:57:49;;;;;;;;;;;;;;;27.57;39.92;94716.06;5012480;28;7008;-62
2022/07/02 08:00:19;;;;;;;;;;;;;;;27.57;39.44;94718.09;5021518;28;7127;-63
2022/07/02 08:02:52;;;;;;;;;;;;;;;27.57;38.96;94716.06;5014573;28;7639;-62
2022/07/02 08:05:39;;;;;;;;;;;;;;;27.57;39.51;94705.03;5020514;28;7351;-63
2022/07/02 08:08:31;;;;;;;;;;;;;;;27.58;39.91;94709.28;5021533;28;7036;-62
2022/07/02 08:11:09;;;;;;;;;;;;;;;27.59;39.72;94712.78;5024633;28;6993;-62
2022/07/02 08:13:47;;;;;;;;;;;;;;;27.59;39.77;94704.50;5021450;28;7062;-64
2022/07/02 08:16:13;;;;;;;;;;;;;;;27.59;39.71;94708.03;5024042;28;7217;-62
2022/07/02 08:18:41;;;;;;;;;;;;;;;27.60;39.54;94714.28;5014832;28;9062;-62
2022/07/02 08:21:14;;;;;;;;;;;;;;;27.59;39.42;94702.50;5015038;28;7227;-61
2022/07/02 08:23:51;;;;;;;;;;;;;;;27.59;39.46;94707.25;5020004;28;7269;-62
2022/07/02 08:26:32;;;;;;;;;;;;;;;27.59;39.99;94702.50;5021465;28;6977;-62
2022/07/02 08:29:04;;;;;;;;;;;;;;;27.60;39.27;94714.28;5019132;28;7639;-62
2022/07/02 08:31:42;;;;;;;;;;;;;;;27.61;39.54;94705.50;5025953;28;8458;-63
2022/07/02 08:34:14;;;;;;;;;;;;;;;27.60;39.61;94697.69;5017988;28;7150;-63
2022/07/02 08:37:17;;;;;;;;;;;;;;;27.61;39.15;94705.50;5022468;28;8800;-62
2022/07/02 08:39:44;;;;;;;;;;;;;;;27.61;39.49;94699.22;4988126;28;9390;-63
2022/07/02 08:42:10;;;;;;;;;;;;;;;27.62;39.30;94695.19;4987151;28;7649;-63
2022/07/02 08:44:39;;;;;;;;;;;;;;;27.60;39.62;94695.69;4972665;28;7216;-62
2022/07/02 08:47:33;;;;;;;;;;;;;;;27.62;39.76;94698.69;4984144;28;7179;-62
2022/07/02 08:50:03;;;;;;;;;;;;;;;27.63;39.61;94694.66;4984860;28;9550;-62
2022/07/02 08:52:54;;;;;;;;;;;;;;;27.63;39.58;94700.19;4985245;28;9100;-62
2022/07/02 08:55:50;;;;;;;;;;;;;;;27.62;39.44;94693.16;4985828;28;7235;-62
2022/07/02 08:58:17;;;;;;;;;;;;;;;27.60;39.72;94692.91;4946157;28;7088;-63
2022/07/02 09:00:47;;;;;;;;;;;;;;;27.63;39.74;94691.91;4934299;28;9084;-62
2022/07/02 09:03:17;;;;;;;;;;;;;;;27.63;39.36;94693.91;4948149;28;7015;-62
2022/07/02 09:05:49;;;;;;;;;;;;;;;27.63;39.20;94702.19;4946433;28;6988;-62
2022/07/02 09:08:22;;;;;;;;;;;;;;;27.63;39.10;94694.66;4935186;28;9178;-62
2022/07/02 09:10:54;;;;;;;;;;;;;;;27.63;39.28;94688.38;4932537;28;7423;-62
2022/07/02 09:13:39;;;;;;;;;;;;;;;27.61;39.57;94683.38;4939707;28;8779;-62
2022/07/02 09:16:15;;;;;;;;;;;;;;;27.63;39.63;94686.38;4968649;28;7237;-63
2022/07/02 09:18:43;;;;;;;;;;;;;;;27.64;39.96;94695.41;4970985;28;7010;-62
2022/07/02 09:21:09;;;;;;;;;;;;;;;27.63;39.47;94700.19;4955101;28;7203;-62
2022/07/02 09:23:35;;;;;;;;;;;;;;;27.61;39.78;94697.19;4968046;28;7220;-62
2022/07/02 09:26:19;;;;;;;;;;;;;;;27.65;39.62;94688.59;4967959;28;9456;-62
2022/07/02 09:29:01;;;;;;;;;;;;;;;27.64;39.76;94685.09;4964940;28;7197;-62
2022/07/02 09:31:30;;;;;;;;;;;;;;;27.65;39.73;94677.56;4951310;28;9022;-62
2022/07/02 09:33:59;;;;;;;;;;;;;;;27.62;39.56;94681.38;4953709;28;9146;-62
2022/07/02 09:36:36;;;;;;;;;;;;;;;27.61;39.00;94685.38;5014658;28;6998;-62
2022/07/02 09:39:04;;;;;;;;;;;;;;;27.64;39.61;94682.31;5008984;28;8403;-63
2022/07/02 09:41:31;;;;;;;;;;;;;;;27.62;39.37;94684.88;5013499;28;7217;-62
2022/07/02 09:44:03;;;;;;;;;;;;;;;27.64;39.22;94679.56;5021723;28;6990;-62
2022/07/02 09:46:32;;;;;;;;;;;;;;;27.66;38.77;94686.59;5014273;28;7218;-62
2022/07/02 09:49:07;;;;;;;;;;;;;;;27.64;39.19;94682.31;5013474;28;8152;-61
2022/07/02 09:51:48;;;;;;;;;;;;;;;27.64;39.09;94684.38;5017666;28;7181;-62
2022/07/02 09:54:31;;;;;;;;;;;;;;;27.68;39.36;94690.34;5023572;28;7082;-62
2022/07/02 09:56:58;;;;;;;;;;;;;;;27.69;39.32;94694.59;5018437;28;8719;-61
2022/07/02 09:59:35;;;;;;;;;;;;;;;27.70;39.12;94689.81;5019816;28;7032;-62
2022/07/02 10:02:28;;;;;;;;;;;;;;;27.73;39.21;94689.53;5016520;28;7010;-61
2022/07/02 10:04:56;;;;;;;;;;;;;;;27.77;39.25;94689.25;4999515;28;7391;-61
2022/07/02 10:07:24;;;;;;;;;;;;;;;27.78;39.27;94690.75;4995232;28;7289;-61
2022/07/02 10:09:51;;;;;;;;;;;;;;;27.74;39.57;94685.50;4996820;28;7629;-61
2022/07/02 10:12:19;;;;;;;;;;;;;;;27.75;39.06;94687.03;4981720;28;8716;-62
2022/07/02 10:15:07;;;;;;;;;;;;;;;27.75;39.44;94686.25;4985128;28;6953;-61
2022/07/02 10:17:39;;;;;;;;;;;;;;;27.72;39.67;94687.28;4996929;28;8297;-61
2022/07/02 10:20:08;;;;;;;;;;;;;;;27.73;39.86;94684.00;4991574;28;7016;-62
2022/07/02 10:22:35;;;;;;;;;;;;;;;27.75;39.76;94686.25;4995555;28;7817;-61
2022/07/02 10:25:03;;;;;;;;;;;;;;;27.74;39.31;94687.53;4988612;28;7604;-61
2022/07/02 10:27:35;;;;;;;;;;;;;;;27.76;39.37;94696.03;4997880;28;9158;-61
2022/07/02 10:30:02;;;;;;;;;;;;;;;27.76;39.48;94688.50;4983982;28;9420;-61
2022/07/02 10:33:10;;;;;;;;;;;;;;;27.77;39.55;94686.50;4994108;28;9608;-61
2022/07/02 10:35:42;;;;;;;;;;;;;;;27.77;39.62;94689.25;4958158;28;9095;-61
2022/07/02 10:38:30;;;;;;;;;;;;;;;27.77;39.39;94684.50;4953173;28;8637;-61
2022/07/02 10:41:02;;;;;;;;;;;;;;;27.78;39.91;94677.69;4948708;28;7316;-61
2022/07/02 10:43:36;;;;;;;;;;;;;;;27.79;40.00;94683.97;4949754;28;7357;-61
2022/07/02 10:46:11;;;;;;;;;;;;;;;27.79;40.81;94670.13;4930839;28;6991;-61
2022/07/02 10:49:23;;;;;;;;;;;;;;;27.80;40.54;94668.84;4933721;28;6912;-61
2022/07/02 10:51:57;;;;;;;;;;;;;;;27.80;40.19;94666.09;4932443;28;7238;-61
2022/07/02 10:54:32;;;;;;;;;;;;;;;27.82;40.84;94669.13;4930137;28;9196;-61
2022/07/02 10:57:00;;;;;;;;;;;;;;;27.82;40.44;94675.38;4929671;28;6865;-61
2022/07/02 10:59:35;;;;;;;;;;;;;;;27.82;40.05;94672.59;4929362;28;8009;-61
2022/07/02 11:02:16;;;;;;;;;;;;;;;27.82;40.22;94663.59;4927816;29;9333;-61
2022/07/02 11:04:42;;;;;;;;;;;;;;;27.86;40.33;94664.03;4925263;28;8265;-61
2022/07/02 11:07:13;;;;;;;;;;;;;;;27.88;39.86;94658.72;4932174;28;7256;-61
2022/07/02 11:10:07;;;;;;;;;;;;;;;27.90;40.25;94650.66;4949279;28;7199;-62
2022/07/02 11:13:01;;;;;;;;;;;;;;;27.91;40.10;94649.38;5015721;28;7182;-61
2022/07/02 11:15:37;;;;;;;;;;;;;;;27.90;39.90;94634.09;5035223;28;9162;-62
2022/07/02 11:18:07;;;;;;;;;;;;;;;27.91;39.83;94641.09;5022608;28;7227;-61
2022/07/02 11:20:35;;;;;;;;;;;;;;;27.92;39.82;94645.38;5032908;28;7465;-61
2022/07/02 11:23:25;;;;;;;;;;;;;;;27.94;39.75;94643.59;5019866;28;7274;-61
2022/07/02 11:25:51;;;;;;;;;;;;;;;27.94;39.40;94645.59;5021432;28;7169;-62
2022/07/02 11:28:17;;;;;;;;;;;;;;;27.95;39.57;94649.88;5034346;28;7214;-61
2022/07/02 11:30:43;;;;;;;;;;;;;;;27.95;39.73;94653.34;5023734;28;9241;-61
2022/07/02 11:33:21;;;;;;;;;;;;;;;27.96;39.85;94651.34;5016022;28;7247;-62
2022/07/02 11:35:52;;;;;;;;;;;;;;;27.94;39.56;94649.13;5020006;28;9535;-61
2022/07/02 11:38:18;;;;;;;;;;;;;;;27.97;39.59;94644.56;5015815;28;6932;-61
2022/07/02 11:40:44;;;;;;;;;;;;;;;27.96;39.78;94646.56;5030099;28;9094;-62
2022/07/02 11:43:19;;;;;;;;;;;;;;;27.98;39.88;94643.31;5025503;28;9042;-61
2022/07/02 11:45:49;;;;;;;;;;;;;;;27.98;39.86;94638.53;5016308;28;7007;-62
2022/07/02 11:48:26;;;;;;;;;;;;;;;27.99;40.15;94628.94;5009415;28;9306;-62
2022/07/02 11:50:57;;;;;;;;;;;;;;;27.99;39.75;94634.47;5008389;28;7124;-62
2022/07/02 11:53:23;;;;;;;;;;;;;;;28.02;39.99;94632.69;5018391;28;7062;-61
2022/07/02 11:55:52;;;;;;;;;;;;;;;28.02;39.85;94638.22;5021728;28;8817;-61
2022/07/02 11:58:25;;;;;;;;;;;;;;;28.03;40.22;94639.75;5043504;28;7045;-62
2022/07/02 12:00:56;;;;;;;;;;;;;;;28.06;39.85;94638.69;5022213;28;7322;-62
2022/07/02 12:03:35;;;;;;;;;;;;;;;28.06;39.76;94639.44;5018871;28;9437;-62
2022/07/02 12:06:01;;;;;;;;;;;;;;;28.04;39.34;94636.44;5025016;28;9103;-62
2022/07/02 12:08:27;;;;;;;;;;;;;;;28.04;39.73;94638.44;5020327;28;7005;-63
2022/07/02 12:10:59;;;;;;;;;;;;;;;28.04;39.77;94632.91;5031368;28;7040;-62
2022/07/02 12:13:26;;;;;;;;;;;;;;;28.02;40.10;94627.16;5028662;28;7161;-62
2022/07/02 12:15:52;;;;;;;;;;;;;;;28.04;40.97;94627.41;5016967;28;7020;-61
2022/07/02 12:18:24;;;;;;;;;;;;;;;28.07;40.29;94620.81;5016857;28;7257;-62
2022/07/02 12:20:55;;;;;;;;;;;;;;;28.09;39.98;94621.81;5016795;28;8933;-62
2022/07/02 12:23:29;;;;;;;;;;;;;;;28.07;40.15;94618.06;5028148;28;7175;-62
2022/07/02 12:25:57;;;;;;;;;;;;;;;28.07;40.08;94607.75;5031368;28;7001;-61
2022/07/02 12:31:29;;;;;;;;;;;;;;;28.15;39.94;94610.66;5020148;28;9028;-62
2022/07/02 12:33:57;;;;;;;;;;;;;;;28.16;39.99;94606.63;5019897;28;8705;-62
2022/07/02 12:36:32;;;;;;;;;;;;;;;28.17;40.06;94597.81;5000316;28;7104;-62
2022/07/02 12:39:39;;;;;;;;;;;;;;;28.18;39.77;94602.09;5016607;28;7095;-62
2022/07/02 12:42:27;;;;;;;;;;;;;;;28.20;40.30;94598.78;4984472;28;9800;-61
2022/07/02 12:45:23;;;;;;;;;;;;;;;28.21;40.01;94597.50;4974069;28;9340;-62
2022/07/02 12:48:18;;;;;;;;;;;;;;;28.22;39.98;94594.22;4983725;28;7266;-62
2022/07/02 12:51:08;;;;;;;;;;;;;;;28.24;40.00;94594.44;4984247;28;8727;-62
2022/07/02 12:53:36;;;;;;;;;;;;;;;28.25;40.00;94589.69;4968531;28;7395;-62
2022/07/02 12:56:06;;;;;;;;;;;;;;;28.25;39.91;94587.63;4973915;28;7250;-62
2022/07/02 12:58:56;;;;;;;;;;;;;;;28.29;40.33;94584.59;4970166;28;7239;-62
2022/07/02 13:01:23;;;;;;;;;;;;;;;28.28;39.98;94577.53;4982844;28;7233;-61
2022/07/02 13:04:01;;;;;;;;;;;;;;;28.29;40.01;94579.06;4968011;28;8042;-62
2022/07/02 13:06:29;;;;;;;;;;;;;;;28.32;40.51;94570.44;4974684;28;7235;-62
2022/07/02 13:08:55;;;;;;;;;;;;;;;28.35;40.89;94576.94;4946731;28;7260;-62
2022/07/02 13:11:23;;;;;;;;;;;;;;;28.35;40.58;94571.41;4966916;28;7281;-62
2022/07/02 13:13:50;;;;;;;;;;;;;;;28.35;40.90;94560.34;4966197;28;9402;-62
2022/07/02 13:16:28;;;;;;;;;;;;;;;28.36;40.56;94565.34;4948567;28;8420;-62
2022/07/02 13:18:57;;;;;;;;;;;;;;;28.38;40.43;94570.38;5001692;28;6856;-62
2022/07/02 13:21:30;;;;;;;;;;;;;;;28.40;40.46;94562.28;5029102;28;6984;-62
2022/07/02 13:24:05;;;;;;;;;;;;;;;28.41;40.36;94557.50;5018877;28;7177;-62
2022/07/02 13:26:31;;;;;;;;;;;;;;;28.41;40.81;94557.50;5020810;28;7243;-62
2022/07/02 13:29:06;;;;;;;;;;;;;;;28.42;40.93;94550.69;5017880;28;9130;-62
2022/07/02 13:31:45;;;;;;;;;;;;;;;28.44;40.89;94568.28;5019327;28;7236;-62